Strona główna
METAR-TAF:

METAR-TAF

Lotnisko :

Port lotniczy Denpasar

Denpasar, Indonezja

Szerokość geograficzna: 08-44-53S, Długość geograficzna: 115-10-03E, wysokość: 4 m

Aktualna obserwacja pogody

Raport powstał 34 minut temu, godzina 03:00 UTC
Wiatr 10 kt od zachodnio-północny zachód
Temperatura 31°C
Wilgotność 75%
Ciśnienie 1010 hPa
Widzialność 10 km lub więcej
Mało chmury na wysokości 1700 ft

METAR: WADD 100300Z 29010KT 9999 FEW017 31/26 Q1010 NOSIG

czas: 10:34 (03:34 UTC)

Prognoza

Raport powstał 4 godziny i 34 minut temu, godzina 23:00 UTC
Prognoza ważna od 10 godzina 00 UTC do 11 godzina 00 UTC
Wiatr 10 kt od zachodnio-południowy zachód
Widzialność 10 km lub więcej
Rozproszone chmury na wysokości 1700 ft
Przejściowo
od 10 godzina 10 UTC do 10 godzina 14 UTC
Mało chmury na wysokości 1500 ft, Cumulonimbus.
Stopniowe zmiany
od 10 godzina 12 UTC do 10 godzina 14 UTC
Wiatr 5 kt z kierunków zmiennych

TAF: WADD 092300Z 1000/1100 25010KT 9999 SCT017 TEMPO 1010/1014 FEW015CB BECMG 1012/1014 VRB05KT

Obserwacja i prognoza pogody dla ponad 4000 lotnisk (raport METAR i TAF).

Dostępne stacje oznaczono żółtymi i czerwonymi punktami na mapie.

Najedź kursorem aby zobaczyć nazwę stacji.

Kliknij aby zobaczyć obserwacje i prognozy pogody.

Aby zmienić mapę: kliknij na zielony przycisk z czarnym krzyżykiem, aby powiększyć; na zielony przycisk z myślnikiem, aby pomniejszyć; na zielone strzałki, aby przejść do map sąsiednich.


METAR-TAF: